Heath, TX (75032)

1:43 AM CDT on April 26, 2015 (GMT -0500)
Historical Rockwall | | Change Station
CLOSE
Current Station
Personal Weather Station
Location: Rockwall, TX
Elevation: 587 ft
Nearby Weather Stations
Active Advisory: Flood Warning Active Notice: Public Information Statement

Elev 587 ft 32.92 °N, 96.46 °W | Updated 4 seconds ago

Clear
Clear
67.1 °F
Feels Like 67.1 °F
N
0.0
Wind Variable Wind from South
Gusts 0.0 mph

Today
High -- | Low -- °F
--% Chance of Precip.
Yesterday
High -- | Low -- °F
Precip. -- in
6:43 AM 8:04 PM
First Quarter, 53% visible
Pressure 29.67 in
Visibility 10.0 miles
Clouds Clear
Dew Point 55 °F
Humidity 66%
Rainfall 0.00 in
Snow Depth Not available.
UV 0.0 out of 12
Pollen 9.10 out of 12
Air Quality Not available.
Flu Activity Local Activity
METAR KF46 260635Z AUTO 19007KT 10SM CLR 18/13 A2967 RMK AO2 T01830130

More Conditions Fewer Conditions

Pressure 29.67 in
Visibility 10.0 miles
Clouds Clear
Dew Point 55 °F
Humidity 66%
Rainfall 0.00 in
Snow Depth Not available.
UV 0.0 out of 12
Pollen 9.10 out of 12
Air Quality Not available.
Flu Activity Local Activity
METAR KF46 260635Z AUTO 19007KT 10SM CLR 18/13 A2967 RMK AO2 T01830130

More Conditions Fewer Conditions

The full scope of the disaster following a powerful 7.8-magnitude earthquake in Nepal may not come into view for days, but global charities are already sending emergency aid. Click to see how you can help.

10-Day Weather Forecast

Almanac

Astronomy

Apr. 26, 2015 Rise Set
Actual Time
Civil Twilight
Nautical Twilight
Astronomical Twilight
Moon
Length of Visible Light
Length of Day
Tomorrow will be .
, % of the Moon is Illuminated

Today's Extremes

State Highs State Lows

Community

WunderPhotos

Upload Photos

1,816,947 photos uploaded!

WunderBlogs® & News

Nearby

Air Quality

  Air Quality AQ Index Pollutant
Not available.

Snow Depth

Station Depth Elevation

Earthquake Activity

City Distance Mag. Time & Date
Minimum magnitude displayed is 2.5.

Coastal Water Temperatures

Place Temperature

Stations

Nearby Weather Stations

Station Location Temp. Windchill Dew Point Humidity Wind Precip. Elev Updated Type
                   
Flood Warning
Statement as of 9:07 PM CDT on April 25, 2015

The Flood Warning continues for
the South Fork Sabine River near Quinlan.
* At 0845 PM Saturday the stage was 16.15 feet.
* Flood stage is 15 feet.
* Minor flooding is occurring and minor flooding is forecast.
* Forecast... the river has crested and will continue to recede and
fall below flood stage by Sunday morning.


Lat... Lon 3287 9634 3283 9620 3293 9615 3297 9627